Time;durP1;ratioP1;P1;durP2;ratioP2;P2;SDS_P1;SDS_P2;PMS_P1;PMS_P2;Temp;Humidity;BMP_temperature;BMP_pressure;BME280_temperature;BME280_humidity;BME280_pressure;Samples;Min_cycle;Max_cycle;Signal;HPM_P1;HPM_P2
2023/02/07 00:01:12;;;;;;;31.88;14.55;;;-5.70;99.90;;;;;;5070640;28;20024;-75
2023/02/07 00:03:38;;;;;;;22.17;10.48;;;-5.70;99.90;;;;;;5070305;28;20021;-75
2023/02/07 00:06:10;;;;;;;28.33;12.13;;;-5.50;99.90;;;;;;5070327;28;20119;-75
2023/02/07 00:08:36;;;;;;;28.35;13.50;;;-5.40;99.90;;;;;;5070315;28;20077;-74
2023/02/07 00:11:07;;;;;;;33.40;14.38;;;-5.40;99.90;;;;;;5070420;28;20024;-75
2023/02/07 00:13:33;;;;;;;31.27;15.40;;;-5.40;99.90;;;;;;5070410;28;20112;-74
2023/02/07 00:15:59;;;;;;;39.25;18.60;;;-5.40;99.90;;;;;;5069723;28;20041;-74
2023/02/07 00:18:25;;;;;;;33.53;15.55;;;-5.40;99.90;;;;;;5071495;28;20032;-75
2023/02/07 00:21:05;;;;;;;21.23;11.00;;;-5.50;99.90;;;;;;5072419;28;20037;-75
2023/02/07 00:23:32;;;;;;;21.27;9.70;;;-5.60;99.90;;;;;;5070179;28;20032;-74
2023/02/07 00:25:58;;;;;;;21.92;9.60;;;-5.70;99.90;;;;;;5070540;28;20055;-75
2023/02/07 00:28:24;;;;;;;24.88;11.00;;;-5.80;99.90;;;;;;5070270;28;20025;-74
2023/02/07 00:30:50;;;;;;;27.40;11.68;;;-5.80;99.90;;;;;;5069477;28;20032;-74
2023/02/07 00:33:16;;;;;;;29.02;14.07;;;-5.90;99.90;;;;;;5069708;28;20031;-74
2023/02/07 00:35:42;;;;;;;28.42;13.98;;;-6.00;99.90;;;;;;5069811;28;20036;-74
2023/02/07 00:38:08;;;;;;;27.05;11.60;;;-6.10;99.90;;;;;;5068714;28;20035;-74
2023/02/07 00:40:33;;;;;;;30.35;13.63;;;-6.10;99.90;;;;;;5068524;28;20025;-74
2023/02/07 00:42:59;;;;;;;30.13;13.35;;;-6.10;99.90;;;;;;5069823;28;20028;-74
2023/02/07 00:45:25;;;;;;;31.58;14.35;;;-6.10;99.90;;;;;;5069876;28;20556;-74
2023/02/07 00:47:50;;;;;;;36.75;13.73;;;-6.10;99.90;;;;;;5070053;28;20075;-74
2023/02/07 00:50:16;;;;;;;28.70;12.85;;;-6.10;99.90;;;;;;5068591;28;20071;-75
2023/02/07 00:52:42;;;;;;;23.63;9.70;;;-6.10;99.90;;;;;;5069984;28;20031;-74
2023/02/07 00:55:08;;;;;;;19.23;8.40;;;-5.90;99.90;;;;;;5069461;28;20531;-74
2023/02/07 00:57:33;;;;;;;19.27;8.52;;;-5.70;99.90;;;;;;5069878;28;20409;-75
2023/02/07 00:59:59;;;;;;;24.17;10.60;;;-5.60;99.90;;;;;;5070220;28;20032;-75
2023/02/07 01:02:24;;;;;;;23.63;11.43;;;-5.50;99.90;;;;;;5068871;28;20036;-76
2023/02/07 01:04:50;;;;;;;22.33;11.15;;;-5.50;99.90;;;;;;5069774;28;20032;-74
2023/02/07 01:07:16;;;;;;;19.17;9.40;;;-5.60;99.90;;;;;;5070537;28;20056;-76
2023/02/07 01:09:41;;;;;;;20.83;8.65;;;-5.70;99.90;;;;;;5070345;28;20020;-74
2023/02/07 01:12:07;;;;;;;24.60;10.10;;;-5.80;99.90;;;;;;5070436;28;20040;-75
2023/02/07 01:14:33;;;;;;;21.42;10.02;;;-5.80;99.90;;;;;;5070526;28;20029;-75
2023/02/07 01:16:58;;;;;;;26.65;10.50;;;-6.00;99.90;;;;;;5070522;28;20028;-75
2023/02/07 01:19:24;;;;;;;21.65;10.43;;;-6.00;99.90;;;;;;5070777;28;20051;-75
2023/02/07 01:21:49;;;;;;;26.13;10.52;;;-6.10;99.90;;;;;;5069561;28;20071;-75
2023/02/07 01:24:15;;;;;;;32.55;12.18;;;-6.20;99.90;;;;;;5069248;28;20092;-75
2023/02/07 01:26:41;;;;;;;39.00;13.43;;;-6.20;99.90;;;;;;5070105;28;20097;-74
2023/02/07 01:29:07;;;;;;;38.55;12.05;;;-6.30;99.90;;;;;;5069674;28;20029;-74
2023/02/07 01:31:33;;;;;;;32.42;11.13;;;-6.30;99.90;;;;;;5069722;28;20036;-74
2023/02/07 01:33:59;;;;;;;34.80;13.25;;;-6.30;99.90;;;;;;5069725;28;20063;-75
2023/02/07 01:36:27;;;;;;;33.30;11.93;;;-6.30;99.90;;;;;;5068209;28;20071;-75
2023/02/07 01:38:53;;;;;;;28.73;10.70;;;-6.30;99.90;;;;;;5069571;28;20028;-73
2023/02/07 01:41:22;;;;;;;30.83;10.38;;;-6.40;99.90;;;;;;5069536;28;20517;-74
2023/02/07 01:44:06;;;;;;;26.20;11.00;;;-6.40;99.90;;;;;;5070481;28;20055;-76
2023/02/07 01:46:33;;;;;;;23.55;9.85;;;-6.50;99.90;;;;;;5073090;28;20077;-74
2023/02/07 01:49:08;;;;;;;28.58;11.43;;;-6.40;99.90;;;;;;5073294;28;20024;-75
2023/02/07 01:51:36;;;;;;;32.95;11.60;;;-6.40;99.90;;;;;;5074491;28;20044;-74
2023/02/07 01:54:05;;;;;;;25.98;9.68;;;-6.50;99.90;;;;;;5074600;28;20098;-74
2023/02/07 01:56:32;;;;;;;24.38;9.60;;;-6.50;99.90;;;;;;5073297;28;20567;-73
2023/02/07 01:59:03;;;;;;;17.73;7.43;;;-6.30;99.90;;;;;;5072690;28;20025;-74
2023/02/07 02:01:29;;;;;;;16.10;7.22;;;-5.80;99.90;;;;;;5074192;28;20028;-74
2023/02/07 02:03:55;;;;;;;17.58;7.78;;;-5.70;99.90;;;;;;5073897;28;20033;-74
2023/02/07 02:06:26;;;;;;;23.33;10.52;;;-5.50;99.90;;;;;;5072803;28;20032;-74
2023/02/07 02:08:55;;;;;;;21.98;11.23;;;-5.50;99.90;;;;;;5072779;28;20028;-75
2023/02/07 02:11:33;;;;;;;23.75;9.80;;;-5.60;99.90;;;;;;5072820;28;20477;-74
2023/02/07 02:14:17;;;;;;;30.98;11.80;;;-5.70;99.90;;;;;;5072662;28;20040;-75
2023/02/07 02:16:51;;;;;;;28.77;11.50;;;-5.90;99.90;;;;;;5071466;28;20033;-75
2023/02/07 02:19:50;;;;;;;36.08;13.00;;;-5.90;99.90;;;;;;5073100;28;20021;-76
2023/02/07 02:22:38;;;;;;;29.60;11.98;;;-6.00;99.90;;;;;;5071685;28;20497;-74
2023/02/07 02:25:24;;;;;;;30.63;12.27;;;-6.10;99.90;;;;;;5072776;28;20055;-74
2023/02/07 02:28:05;;;;;;;;;;;-6.20;99.90;;;;;;5073250;28;20544;-74
2023/02/07 02:30:42;;;;;;;23.85;9.48;;;-6.40;99.90;;;;;;5072985;28;19909;-75
2023/02/07 02:33:17;;;;;;;19.50;7.95;;;-6.40;99.90;;;;;;5072075;28;20035;-73
2023/02/07 02:36:27;;;;;;;20.60;8.32;;;-6.30;99.90;;;;;;5072423;28;20043;-75
2023/02/07 02:39:07;;;;;;;20.23;7.95;;;-6.20;99.90;;;;;;5043068;28;20089;-74
2023/02/07 02:42:00;;;;;;;19.42;7.60;;;-6.20;99.90;;;;;;5073117;28;20033;-75
2023/02/07 02:44:37;;;;;;;21.67;9.07;;;-6.30;99.90;;;;;;5072342;28;20086;-75
2023/02/07 02:47:03;;;;;;;20.80;9.20;;;-6.30;99.90;;;;;;5071588;28;20623;-75
2023/02/07 02:49:32;;;;;;;18.25;8.48;;;-6.30;99.90;;;;;;5069863;28;20037;-76
2023/02/07 02:51:58;;;;;;;17.73;7.75;;;-6.30;99.90;;;;;;5069921;28;20075;-74
2023/02/07 02:54:36;;;;;;;17.38;6.60;;;-6.20;99.90;;;;;;5068081;28;20052;-75
2023/02/07 02:57:23;;;;;;;16.98;6.60;;;-6.30;99.90;;;;;;5070493;28;20067;-75
2023/02/07 03:00:20;;;;;;;19.20;9.30;;;-6.30;99.90;;;;;;5071459;28;20031;-75
2023/02/07 03:03:19;;;;;;;20.90;9.13;;;-6.30;99.90;;;;;;5069906;28;20036;-75
2023/02/07 03:06:07;;;;;;;26.60;10.95;;;-6.30;99.90;;;;;;5070308;28;20036;-75
2023/02/07 03:08:52;;;;;;;30.15;13.30;;;-6.30;99.90;;;;;;5071454;28;20051;-75
2023/02/07 03:11:21;;;;;;;34.73;12.97;;;-6.30;99.90;;;;;;5070461;28;20036;-74
2023/02/07 03:14:01;;;;;;;28.73;11.48;;;-6.40;99.90;;;;;;5071707;28;20405;-75
2023/02/07 03:16:39;;;;;;;26.52;10.70;;;-6.40;99.90;;;;;;5071325;28;20047;-75
2023/02/07 03:19:22;;;;;;;20.45;9.05;;;-6.40;99.90;;;;;;5070045;28;20025;-74
2023/02/07 03:21:55;;;;;;;26.13;11.82;;;-6.40;99.90;;;;;;5071256;28;20028;-75
2023/02/07 03:24:32;;;;;;;28.30;11.18;;;-6.40;99.90;;;;;;5071173;28;20512;-75
2023/02/07 03:27:01;;;;;;;28.63;12.45;;;-6.40;99.90;;;;;;5071067;28;20070;-75
2023/02/07 03:29:29;;;;;;;28.67;11.68;;;-6.50;99.90;;;;;;5069846;28;20493;-74
2023/02/07 03:31:58;;;;;;;32.28;12.82;;;-6.50;99.90;;;;;;5070018;28;20028;-76
2023/02/07 03:34:47;;;;;;;39.05;15.45;;;-6.40;99.90;;;;;;5069884;28;20040;-75
2023/02/07 03:37:41;;;;;;;32.72;13.25;;;-6.40;99.90;;;;;;5039740;28;20113;-75
2023/02/07 03:40:08;;;;;;;41.70;14.13;;;-6.40;99.90;;;;;;5070940;28;20028;-75
2023/02/07 03:42:45;;;;;;;35.90;13.60;;;-6.50;99.90;;;;;;5070991;28;20242;-76
2023/02/07 03:45:17;;;;;;;32.22;12.23;;;-6.50;99.90;;;;;;5070757;28;20055;-73
2023/02/07 03:47:43;;;;;;;28.38;11.60;;;-6.60;99.90;;;;;;5071111;28;20028;-75
2023/02/07 03:50:09;;;;;;;30.85;11.85;;;-6.60;99.90;;;;;;5069481;28;20081;-75
2023/02/07 03:52:35;;;;;;;24.65;10.95;;;-6.60;99.90;;;;;;5069248;28;20097;-75
2023/02/07 03:55:00;;;;;;;29.27;11.15;;;-6.60;99.90;;;;;;5070115;28;20048;-75
2023/02/07 03:57:26;;;;;;;29.77;11.60;;;-6.70;99.90;;;;;;5069138;28;20032;-75
2023/02/07 03:59:52;;;;;;;23.20;10.10;;;-6.70;99.90;;;;;;5070339;28;20032;-75
2023/02/07 04:02:17;;;;;;;23.30;9.95;;;-6.80;99.90;;;;;;5069944;28;20032;-75
2023/02/07 04:04:43;;;;;;;23.70;9.30;;;-6.80;99.90;;;;;;5070309;28;20070;-74
2023/02/07 04:07:10;;;;;;;13.60;6.22;;;-6.70;99.90;;;;;;5069537;28;20028;-75
2023/02/07 04:09:36;;;;;;;13.27;6.53;;;-6.70;99.90;;;;;;5070322;28;20115;-74
2023/02/07 04:12:03;;;;;;;12.55;5.93;;;-6.70;99.90;;;;;;5070168;28;20078;-75
2023/02/07 04:14:29;;;;;;;26.92;11.73;;;-6.70;99.90;;;;;;5068805;28;20787;-75
2023/02/07 04:16:54;;;;;;;14.52;7.15;;;-6.70;99.90;;;;;;5070178;28;20028;-75
2023/02/07 04:19:20;;;;;;;16.77;6.13;;;-6.60;99.90;;;;;;5070265;28;20680;-74
2023/02/07 04:21:46;;;;;;;18.75;6.45;;;-6.70;99.90;;;;;;5070070;28;20029;-75
2023/02/07 04:24:12;;;;;;;14.10;5.85;;;-6.70;99.90;;;;;;5070084;28;20027;-74
2023/02/07 04:26:38;;;;;;;17.55;6.60;;;-6.80;99.90;;;;;;5070087;28;20037;-76
2023/02/07 04:29:04;;;;;;;46.88;8.40;;;-6.80;99.90;;;;;;5068704;28;20103;-75
2023/02/07 04:31:29;;;;;;;23.42;9.18;;;-6.90;99.90;;;;;;5069872;28;20040;-74
2023/02/07 04:33:55;;;;;;;19.85;8.70;;;-6.90;99.90;;;;;;5068595;28;20012;-75
2023/02/07 04:36:21;;;;;;;21.83;8.68;;;-7.00;99.90;;;;;;5068635;28;20528;-75
2023/02/07 04:38:47;;;;;;;25.40;10.30;;;-7.00;99.90;;;;;;5068471;28;20553;-75
2023/02/07 04:41:13;;;;;;;27.17;9.60;;;-7.10;99.90;;;;;;5069755;28;20071;-75
2023/02/07 04:43:38;;;;;;;19.10;8.93;;;-7.10;99.90;;;;;;5069889;28;20074;-75
2023/02/07 04:46:05;;;;;;;15.43;6.70;;;-7.10;99.90;;;;;;5069899;28;20040;-74
2023/02/07 04:48:32;;;;;;;15.68;7.03;;;-7.20;99.90;;;;;;5070039;28;20017;-75
2023/02/07 04:50:57;;;;;;;17.50;7.00;;;-7.10;99.90;;;;;;5069674;28;20029;-74
2023/02/07 04:53:24;;;;;;;19.40;8.52;;;-7.10;99.90;;;;;;5069603;28;20128;-76
2023/02/07 04:55:51;;;;;;;18.45;6.90;;;-7.10;99.90;;;;;;5068468;28;20071;-74
2023/02/07 04:58:17;;;;;;;19.38;8.23;;;-7.10;99.90;;;;;;5069773;28;20029;-75
2023/02/07 05:00:44;;;;;;;18.85;8.57;;;-7.10;99.90;;;;;;5068690;28;20032;-75
2023/02/07 05:03:10;;;;;;;16.48;7.13;;;-7.10;99.90;;;;;;5068608;28;20020;-74
2023/02/07 05:05:39;;;;;;;19.00;9.13;;;-7.10;99.90;;;;;;5070015;28;20024;-76
2023/02/07 05:08:05;;;;;;;29.95;17.55;;;-7.20;99.90;;;;;;5068427;28;20238;-75
2023/02/07 05:10:31;;;;;;;29.75;12.95;;;-7.20;99.90;;;;;;5068318;28;20038;-75
2023/02/07 05:12:56;;;;;;;31.38;14.10;;;-7.20;99.90;;;;;;5068261;28;20459;-75
2023/02/07 05:15:22;;;;;;;17.27;8.70;;;-7.30;99.90;;;;;;5068281;28;20041;-75
2023/02/07 05:17:48;;;;;;;15.05;7.25;;;-7.20;99.90;;;;;;5069519;28;20032;-74
2023/02/07 05:20:14;;;;;;;17.52;7.15;;;-7.20;99.90;;;;;;5073527;28;20020;-74
2023/02/07 05:22:40;;;;;;;17.90;6.85;;;-7.20;99.90;;;;;;5072759;28;20025;-74
2023/02/07 05:25:05;;;;;;;18.00;7.80;;;-7.20;99.90;;;;;;5075691;28;20044;-75
2023/02/07 05:27:31;;;;;;;18.08;7.35;;;-7.10;99.90;;;;;;5076102;28;20024;-77
2023/02/07 05:29:58;;;;;;;20.13;8.18;;;-7.10;99.90;;;;;;5075120;28;20047;-75
2023/02/07 05:35:08;;;;;;;19.92;6.63;;;-7.10;99.90;;;;;;5074828;28;20625;-75
2023/02/07 05:37:34;;;;;;;16.05;7.57;;;-7.20;99.90;;;;;;5073363;28;20052;-75
2023/02/07 05:40:00;;;;;;;19.65;8.68;;;-7.20;99.90;;;;;;5073134;28;20024;-74
2023/02/07 05:42:25;;;;;;;25.75;10.80;;;-7.20;99.90;;;;;;5071744;28;20112;-75
2023/02/07 05:44:51;;;;;;;32.55;13.48;;;-7.20;99.90;;;;;;5071952;28;20021;-75
2023/02/07 05:47:17;;;;;;;50.38;19.27;;;-7.30;99.90;;;;;;5073111;28;20412;-74
2023/02/07 05:49:42;;;;;;;45.67;18.10;;;-7.30;99.90;;;;;;5073062;28;20028;-75
2023/02/07 05:52:08;;;;;;;79.57;27.20;;;-7.30;99.90;;;;;;5071666;28;20028;-75
2023/02/07 05:54:34;;;;;;;42.28;16.63;;;-7.30;99.90;;;;;;5071600;28;20109;-75
2023/02/07 05:56:59;;;;;;;47.17;16.75;;;-7.30;99.90;;;;;;5072960;28;20033;-74
2023/02/07 05:59:25;;;;;;;58.90;19.10;;;-7.30;99.90;;;;;;5072784;28;20028;-74
2023/02/07 06:01:51;;;;;;;53.95;16.35;;;-7.40;99.90;;;;;;5072674;28;20063;-75
2023/02/07 06:04:16;;;;;;;44.25;15.07;;;-7.40;99.90;;;;;;5072484;28;20589;-75
2023/02/07 06:06:42;;;;;;;39.13;13.75;;;-7.40;99.90;;;;;;5072763;28;20028;-75
2023/02/07 06:09:08;;;;;;;36.22;14.38;;;-7.40;99.90;;;;;;5071423;28;20447;-75
2023/02/07 06:11:33;;;;;;;43.50;16.52;;;-7.40;99.90;;;;;;5071143;28;20031;-75
2023/02/07 06:13:59;;;;;;;43.92;16.60;;;-7.40;99.90;;;;;;5072492;28;20024;-75
2023/02/07 06:16:25;;;;;;;56.53;19.50;;;-7.50;99.90;;;;;;5072489;28;20044;-74
2023/02/07 06:18:51;;;;;;;72.30;25.25;;;-7.50;99.90;;;;;;5072407;28;20031;-75
2023/02/07 06:21:16;;;;;;;80.07;30.73;;;-7.50;99.90;;;;;;5072340;28;20105;-75
2023/02/07 06:23:42;;;;;;;63.00;24.10;;;-7.50;99.90;;;;;;5070825;28;20020;-73
2023/02/07 06:26:08;;;;;;;43.72;16.88;;;-7.40;99.90;;;;;;5072554;28;20037;-74
2023/02/07 06:28:33;;;;;;;31.58;13.40;;;-7.40;99.90;;;;;;5072211;28;20044;-75
2023/02/07 06:30:59;;;;;;;24.10;10.52;;;-7.40;99.90;;;;;;5071470;28;20393;-76
2023/02/07 06:33:25;;;;;;;30.58;12.63;;;-7.30;99.90;;;;;;5072290;28;20112;-78
2023/02/07 06:35:50;;;;;;;56.20;19.08;;;-7.30;99.90;;;;;;5072106;28;20068;-74
2023/02/07 06:38:17;;;;;;;38.33;13.93;;;-7.20;99.90;;;;;;5070743;28;20032;-75
2023/02/07 06:40:44;;;;;;;19.75;8.55;;;-7.20;99.90;;;;;;5072148;28;20020;-75
2023/02/07 06:43:10;;;;;;;24.42;9.57;;;-7.10;99.90;;;;;;5071933;28;20025;-75
2023/02/07 06:45:36;;;;;;;30.27;9.13;;;-7.10;99.90;;;;;;5070669;28;20078;-74
2023/02/07 06:48:03;;;;;;;19.08;8.85;;;-6.90;99.90;;;;;;5072252;28;20032;-75
2023/02/07 06:50:29;;;;;;;23.02;9.00;;;-6.60;99.90;;;;;;5071114;28;20103;-75
2023/02/07 06:53:00;;;;;;;35.08;12.57;;;-6.10;99.90;;;;;;5071759;28;20103;-75
2023/02/07 06:55:36;;;;;;;51.70;16.73;;;-5.50;99.90;;;;;;5070175;28;20480;-75
2023/02/07 06:58:02;;;;;;;30.13;12.43;;;-4.60;99.90;;;;;;5071830;28;20024;-75
2023/02/07 07:00:28;;;;;;;;;;;-3.80;99.90;;;;;;5070664;28;20031;-75
2023/02/07 07:02:54;;;;;;;23.58;10.82;;;-3.10;98.10;;;;;;5070282;28;20384;-76
2023/02/07 07:05:20;;;;;;;;;;;-2.30;94.20;;;;;;5072053;28;20029;-75
2023/02/07 07:07:46;;;;;;;50.27;20.37;;;-1.70;89.40;;;;;;5071502;28;19936;-77
2023/02/07 07:10:12;;;;;;;;;;;-1.20;81.50;;;;;;5072064;28;20025;-75
2023/02/07 07:12:37;;;;;;;43.42;14.60;;;-0.80;77.60;;;;;;5071445;28;20292;-75
2023/02/07 07:15:03;;;;;;;;;;;-0.50;75.60;;;;;;5071637;28;20505;-75
2023/02/07 07:17:29;;;;;;;25.88;11.23;;;-0.30;72.20;;;;;;5069911;28;19904;-75
2023/02/07 07:19:54;;;;;;;;;;;-0.30;72.30;;;;;;5071435;28;20077;-75
2023/02/07 07:22:20;;;;;;;28.85;12.40;;;0.20;72.10;;;;;;5069642;28;19908;-75
2023/02/07 07:24:45;;;;;;;;;;;0.70;71.50;;;;;;5071648;28;20021;-74
2023/02/07 07:27:11;;;;;;;48.00;18.83;;;1.00;68.50;;;;;;5070024;28;19956;-75
2023/02/07 07:29:37;;;;;;;;;;;1.00;67.10;;;;;;5071529;28;20067;-75
2023/02/07 07:32:03;;;;;;;55.17;20.67;;;0.60;68.00;;;;;;5071004;28;20369;-75
2023/02/07 07:34:29;;;;;;;63.28;29.10;;;0.70;70.80;;;;;;5070978;28;20017;-77
2023/02/07 07:36:55;;;;;;;;;;;0.90;67.70;;;;;;5071167;28;20049;-75
2023/02/07 07:39:23;;;;;;;64.15;27.23;;;1.50;68.40;;;;;;5070684;28;19908;-75
2023/02/07 07:41:48;;;;;;;61.28;30.30;;;1.90;66.50;;;;;;5069833;28;20122;-73
2023/02/07 07:44:14;;;;;;;;;;;2.20;65.30;;;;;;5069921;28;20469;-76
2023/02/07 07:46:39;;;;;;;71.22;34.22;;;2.60;63.70;;;;;;5070849;28;19904;-75
2023/02/07 07:49:05;;;;;;;67.55;33.35;;;3.00;62.40;;;;;;5070791;28;20024;-75
2023/02/07 07:51:31;;;;;;;;;;;3.10;62.40;;;;;;5071007;28;20113;-76
2023/02/07 07:53:56;;;;;;;97.80;37.88;;;3.20;60.70;;;;;;5069039;28;19963;-75
2023/02/07 07:56:22;;;;;;;88.68;38.65;;;3.20;60.70;;;;;;5070571;28;20120;-76
2023/02/07 07:58:48;;;;;;;;;;;3.00;60.60;;;;;;5069488;28;20485;-75
2023/02/07 08:01:14;;;;;;;74.35;34.05;;;2.90;60.80;;;;;;5069281;28;20368;-75
2023/02/07 08:03:40;;;;;;;67.65;29.80;;;3.00;61.40;;;;;;5070481;28;20506;-76
2023/02/07 08:06:06;;;;;;;;;;;3.40;60.70;;;;;;5070890;28;20056;-76
2023/02/07 08:08:31;;;;;;;16.20;8.18;;;3.60;58.70;;;;;;5070396;28;19908;-75
2023/02/07 08:11:00;;;;;;;;;;;3.80;57.50;;;;;;5069207;28;20404;-76
2023/02/07 08:13:26;;;;;;;10.02;5.63;;;3.90;57.40;;;;;;5070379;28;19955;-76
2023/02/07 08:15:52;;;;;;;;;;;4.10;57.40;;;;;;5070617;28;20083;-76
2023/02/07 08:18:17;;;;;;;15.00;6.18;;;4.10;56.60;;;;;;5070203;28;19912;-76
2023/02/07 08:20:43;;;;;;;;;;;4.30;56.00;;;;;;5069261;28;20465;-76
2023/02/07 08:23:09;;;;;;;49.28;25.27;;;4.60;55.10;;;;;;5070069;28;19991;-75
2023/02/07 08:25:34;;;;;;;;;;;4.70;55.30;;;;;;5070524;28;20121;-76
2023/02/07 08:28:00;;;;;;;73.43;40.05;;;4.90;54.90;;;;;;5068736;28;20319;-75
2023/02/07 08:30:26;;;;;;;;;;;5.00;55.60;;;;;;5070462;28;20028;-76
2023/02/07 08:32:51;;;;;;;33.38;18.05;;;5.50;53.80;;;;;;5068621;28;19951;-76
2023/02/07 08:35:18;;;;;;;27.95;15.40;;;5.70;52.80;;;;;;5069771;28;20507;-75
2023/02/07 08:37:43;;;;;;;27.42;14.68;;;5.90;53.20;;;;;;5069844;28;20050;-76
2023/02/07 08:40:10;;;;;;;;;;;6.10;53.30;;;;;;5068936;28;20102;-76
2023/02/07 08:42:36;;;;;;;31.27;17.50;;;6.30;54.20;;;;;;5069684;28;20364;-76
2023/02/07 08:45:04;;;;;;;;;;;6.40;54.50;;;;;;5070351;28;20086;-76
2023/02/07 08:47:30;;;;;;;32.90;17.70;;;6.50;54.90;;;;;;5069882;28;19909;-76
2023/02/07 08:49:56;;;;;;;29.83;16.42;;;6.60;55.30;;;;;;5069751;28;20559;-76
2023/02/07 08:52:22;;;;;;;;;;;6.80;54.50;;;;;;5068564;28;20021;-76
2023/02/07 08:54:48;;;;;;;26.48;13.18;;;7.10;53.00;;;;;;5069857;28;19920;-76
2023/02/07 08:57:14;;;;;;;;;;;7.20;52.50;;;;;;5070124;28;20444;-75
2023/02/07 08:59:40;;;;;;;25.40;13.30;;;7.50;51.80;;;;;;5069636;28;19912;-77
2023/02/07 09:02:06;;;;;;;34.40;15.60;;;7.40;51.70;;;;;;5069600;28;20028;-77
2023/02/07 09:04:32;;;;;;;;;;;7.50;51.60;;;;;;5068425;28;20031;-76
2023/02/07 09:06:57;;;;;;;29.48;16.40;;;7.90;51.40;;;;;;5069694;28;20357;-76
2023/02/07 09:09:24;;;;;;;;;;;8.20;53.00;;;;;;5070063;28;20036;-77
2023/02/07 09:11:49;;;;;;;27.58;18.13;;;8.40;51.10;;;;;;5069537;28;20273;-76
2023/02/07 09:14:15;;;;;;;;;;;8.60;50.40;;;;;;5069862;28;20085;-77
2023/02/07 09:16:41;;;;;;;23.88;15.75;;;8.70;49.70;;;;;;5069506;28;19922;-76
2023/02/07 09:19:06;;;;;;;;;;;8.80;49.80;;;;;;5069943;28;20036;-76
2023/02/07 09:21:32;;;;;;;24.02;15.05;;;9.00;49.00;;;;;;5069371;28;19940;-77
2023/02/07 09:23:57;;;;;;;;;;;8.90;48.60;;;;;;5068621;28;20119;-76
2023/02/07 09:26:26;;;;;;;12.40;7.20;;;8.90;48.40;;;;;;5069326;28;20065;-76
2023/02/07 09:28:52;;;;;;;19.35;11.75;;;9.10;43.90;;;;;;5069452;28;20409;-77
2023/02/07 09:31:18;;;;;;;;;;;9.00;43.50;;;;;;5069780;28;20037;-76
2023/02/07 09:33:43;;;;;;;17.58;10.93;;;8.70;44.80;;;;;;5069247;28;20292;-76
2023/02/07 09:36:20;;;;;;;;;;;8.70;45.10;;;;;;5068415;28;20044;-76
2023/02/07 09:38:46;;;;;;;18.80;10.57;;;8.80;44.30;;;;;;5068040;28;20462;-76
2023/02/07 09:41:19;;;;;;;;;;;8.60;44.60;;;;;;5069736;28;20039;-76
2023/02/07 09:43:44;;;;;;;22.33;11.45;;;8.70;44.90;;;;;;5069228;28;20516;-77
2023/02/07 09:46:18;;;;;;;;;;;8.40;45.20;;;;;;5069763;28;20025;-77
2023/02/07 09:48:50;;;;;;;20.13;12.90;;;8.10;45.70;;;;;;5069483;28;20388;-77
2023/02/07 09:51:19;;;;;;;19.77;11.70;;;7.40;46.40;;;;;;5068029;28;20039;-77
2023/02/07 09:53:48;;;;;;;22.40;12.55;;;7.00;47.00;;;;;;5067592;28;20516;-76
2023/02/07 09:56:18;;;;;;;24.70;13.40;;;6.50;48.10;;;;;;5069055;28;20032;-77
2023/02/07 09:59:01;;;;;;;22.95;13.18;;;5.80;49.20;;;;;;5069382;28;20028;-76
2023/02/07 10:01:35;;;;;;;29.63;13.23;;;5.40;50.10;;;;;;5069020;28;20032;-76
2023/02/07 10:04:21;;;;;;;18.63;11.75;;;5.00;51.40;;;;;;5067683;28;20039;-76
2023/02/07 10:06:53;;;;;;;22.25;13.13;;;4.50;52.50;;;;;;5071305;28;20020;-76
2023/02/07 10:09:37;;;;;;;26.30;13.13;;;4.20;53.60;;;;;;5072891;28;20043;-77
2023/02/07 10:12:12;;;;;;;23.80;12.25;;;4.10;54.50;;;;;;5072648;28;20031;-77
2023/02/07 10:15:12;;;;;;;17.42;10.07;;;4.10;54.70;;;;;;5072467;28;20097;-76
2023/02/07 10:17:53;;;;;;;19.52;11.38;;;4.00;54.40;;;;;;5039545;28;20040;-76
2023/02/07 10:20:32;;;;;;;55.80;32.78;;;3.70;55.00;;;;;;5073509;28;20039;-74
2023/02/07 10:23:16;;;;;;;18.88;11.95;;;3.30;55.70;;;;;;5072423;28;20575;-75
2023/02/07 10:26:20;;;;;;;22.48;11.30;;;2.90;55.80;;;;;;5072289;28;20024;-75
2023/02/07 10:29:17;;;;;;;23.42;11.60;;;2.60;56.90;;;;;;5072548;28;20107;-75
2023/02/07 10:31:49;;;;;;;17.30;9.70;;;2.30;58.30;;;;;;5072299;28;20031;-76
2023/02/07 10:34:23;;;;;;;45.80;27.27;;;2.30;58.90;;;;;;5070908;28;20298;-76
2023/02/07 10:36:51;;;;;;;31.98;16.42;;;2.20;59.30;;;;;;5072301;28;20101;-76
2023/02/07 10:39:36;;;;;;;98.90;35.65;;;2.10;58.90;;;;;;5071989;28;20122;-76
2023/02/07 10:42:02;;;;;;;67.55;30.85;;;2.00;59.00;;;;;;5072023;28;20086;-76
2023/02/07 10:44:28;;;;;;;;;;;1.90;59.30;;;;;;5070792;28;20476;-75
2023/02/07 10:47:00;;;;;;;22.90;11.63;;;1.90;60.00;;;;;;5071899;28;20342;-76
2023/02/07 10:49:30;;;;;;;25.30;11.52;;;1.80;59.70;;;;;;5072062;28;20028;-76
2023/02/07 10:52:05;;;;;;;19.02;10.80;;;1.70;59.80;;;;;;5071701;28;20115;-78
2023/02/07 10:54:51;;;;;;;23.90;11.05;;;1.70;60.10;;;;;;5071531;28;20075;-76
2023/02/07 10:57:19;;;;;;;20.88;11.10;;;1.60;60.90;;;;;;5071693;28;20068;-76
2023/02/07 10:59:44;;;;;;;21.02;11.95;;;1.60;60.60;;;;;;5071605;28;20043;-78
2023/02/07 11:02:31;;;;;;;;;;;1.60;60.80;;;;;;5072294;28;20032;-77
2023/02/07 11:05:14;;;;;;;19.40;10.10;;;1.50;61.70;;;;;;5070282;28;20342;-77
2023/02/07 11:07:54;;;;;;;18.77;9.82;;;1.50;61.90;;;;;;5070165;28;20140;-78
2023/02/07 11:10:24;;;;;;;18.02;9.60;;;1.50;61.10;;;;;;5071546;28;20039;-78
2023/02/07 11:12:57;;;;;;;16.85;9.48;;;1.50;60.80;;;;;;5069889;28;20479;-77
2023/02/07 11:15:48;;;;;;;22.83;10.10;;;1.50;61.20;;;;;;5069897;28;20025;-78
2023/02/07 11:18:39;;;;;;;25.60;10.55;;;1.40;62.20;;;;;;5070131;28;20381;-77
2023/02/07 11:21:40;;;;;;;24.77;11.27;;;1.40;63.30;;;;;;5071335;28;20025;-78
2023/02/07 11:24:13;;;;;;;19.60;10.93;;;1.40;63.60;;;;;;5071206;28;20814;-77
2023/02/07 11:27:05;;;;;;;17.60;10.02;;;1.30;64.70;;;;;;5069727;28;20104;-78
2023/02/07 11:29:37;;;;;;;19.88;11.00;;;1.30;65.10;;;;;;5071130;28;20099;-77
2023/02/07 11:32:04;;;;;;;19.90;10.18;;;1.30;66.10;;;;;;5071201;28;20036;-77
2023/02/07 11:34:57;;;;;;;19.45;9.65;;;1.30;65.10;;;;;;5069622;28;20501;-77
2023/02/07 11:37:34;;;;;;;31.02;18.52;;;1.30;65.10;;;;;;5069537;28;20165;-77
2023/02/07 11:40:18;;;;;;;25.45;12.43;;;1.30;64.30;;;;;;5070909;28;20036;-77
2023/02/07 11:42:47;;;;;;;47.63;20.40;;;1.30;64.50;;;;;;5070772;28;20505;-78
2023/02/07 11:45:21;;;;;;;21.30;11.48;;;1.20;65.60;;;;;;5070695;28;20516;-78
2023/02/07 11:47:51;;;;;;;16.75;9.25;;;1.30;66.40;;;;;;5070764;28;20370;-77
2023/02/07 11:50:38;;;;;;;18.65;9.07;;;1.30;65.30;;;;;;5070642;28;20071;-79
2023/02/07 11:53:04;;;;;;;16.10;9.05;;;1.20;64.70;;;;;;5070526;28;20039;-77
2023/02/07 11:55:40;;;;;;;;;;;1.20;64.30;;;;;;5070998;28;20471;-78
2023/02/07 11:58:25;;;;;;;19.27;9.88;;;1.20;64.70;;;;;;5070781;28;19982;-77
2023/02/07 12:00:53;;;;;;;17.15;9.23;;;1.10;64.70;;;;;;5070709;28;20028;-77
2023/02/07 12:03:30;;;;;;;19.00;9.80;;;1.10;65.50;;;;;;5070451;28;20031;-77
2023/02/07 12:06:01;;;;;;;20.75;10.45;;;1.10;66.50;;;;;;5069205;28;20381;-77
2023/02/07 12:08:31;;;;;;;18.17;8.82;;;1.10;67.40;;;;;;5069152;28;20829;-77
2023/02/07 12:11:04;;;;;;;17.63;9.35;;;1.10;67.40;;;;;;5069125;28;20567;-78
2023/02/07 12:13:41;;;;;;;21.30;9.10;;;1.10;67.10;;;;;;5066109;28;20028;-77
2023/02/07 12:16:16;;;;;;;17.80;8.65;;;1.10;66.80;;;;;;5070067;28;20362;-78
2023/02/07 12:18:47;;;;;;;15.48;7.78;;;1.10;66.90;;;;;;5068958;28;20024;-78
2023/02/07 12:21:19;;;;;;;15.77;8.57;;;1.10;66.90;;;;;;5068807;28;20612;-78
2023/02/07 12:24:12;;;;;;;14.35;7.93;;;1.10;66.00;;;;;;5070047;28;20178;-79
2023/02/07 12:26:41;;;;;;;16.02;8.13;;;1.10;66.60;;;;;;5069890;28;20025;-78
2023/02/07 12:29:45;;;;;;;18.75;8.93;;;1.10;66.00;;;;;;5069411;28;20040;-78
2023/02/07 12:32:41;;;;;;;15.20;7.85;;;1.10;65.60;;;;;;5007525;28;20033;-78
2023/02/07 12:35:23;;;;;;;18.10;8.52;;;1.10;66.00;;;;;;5069779;28;20064;-77
2023/02/07 12:38:01;;;;;;;17.33;8.52;;;1.10;65.80;;;;;;5069878;28;20107;-78
2023/02/07 12:40:56;;;;;;;16.08;8.80;;;1.00;65.20;;;;;;5068669;28;20052;-78
2023/02/07 12:43:29;;;;;;;22.38;10.35;;;1.10;65.80;;;;;;5069809;28;20031;-77
2023/02/07 12:46:01;;;;;;;18.08;9.02;;;1.10;66.50;;;;;;5069770;28;20028;-78
2023/02/07 12:48:27;;;;;;;16.58;9.20;;;1.10;66.60;;;;;;5069712;28;20062;-77
2023/02/07 12:50:55;;;;;;;;;;;1.10;66.00;;;;;;5069137;28;20408;-77
2023/02/07 12:53:35;;;;;;;18.02;10.00;;;1.10;66.10;;;;;;5068244;28;19995;-78
2023/02/07 12:56:07;;;;;;;16.52;8.65;;;1.10;65.90;;;;;;5068492;28;20044;-77
2023/02/07 12:59:09;;;;;;;19.95;9.82;;;1.10;66.60;;;;;;5069732;28;20035;-78
2023/02/07 13:01:44;;;;;;;19.33;10.35;;;1.20;67.90;;;;;;5069578;28;20028;-77
2023/02/07 13:04:28;;;;;;;23.63;12.05;;;1.30;67.80;;;;;;5068280;28;20046;-77
2023/02/07 13:07:15;;;;;;;21.00;10.25;;;1.30;67.50;;;;;;5069587;28;20031;-76